Flight Track Log - Related Links

Times and Time Zones

All times are in EDT time to prevent confusion due to time zone crossing. See the UPS1121 flight status page for this flight to view local times or setup timezone preferences in your user account.

Time Position Orientation Groundspeed Altitude Reporting Facility
EDT Latitude Longitude Course Direction KTS MPH feet Rate Location/Type
Tue 09:58:11 PM 41.9333 -72.6969 219° Southwest 132 152 1,400  Level Boston Center
Tue 09:59:19 PM 41.8872 -72.7469 219° Southwest 173 199 4,000 2,484 Climbing Boston Center
Tue 10:00:19 PM 41.8247 -72.7439 178° South 207 238 6,700 3,000 Climbing Boston Center
Tue 10:01:19 PM 41.7625 -72.6711 139° Southeast 276 318 10,000 1,971 Climbing Boston Center
Tue 10:07:10 PM 41.2280 -72.4870 139° Southeast 406 467 20,200 1,565 Climbing FlightAware
Tue 10:07:50 PM 41.1730 -72.5300 210° Southwest 406 467 20,200 1,213 Level FlightAware
Tue 10:08:39 PM 41.0850 -72.6030 212° Southwest 406 467 22,000 1,459 Climbing FlightAware
Tue 10:09:04 PM 41.0426 -72.6368 211° Southwest 409 471 22,000  Level FlightAware
Tue 10:09:38 PM 40.9882 -72.6807 211° Southwest 409 471 22,000  Level FlightAware
Tue 10:10:09 PM 40.9385 -72.7206 211° Southwest 407 468 22,000  Level FlightAware
Tue 10:10:41 PM 40.8866 -72.7623 211° Southwest 407 468 22,000  Level FlightAware
Tue 10:11:13 PM 40.8352 -72.8034 211° Southwest 406 467 22,000  Level FlightAware
Tue 10:11:43 PM 40.7865 -72.8424 211° Southwest 405 466 22,000  Level FlightAware
Tue 10:12:16 PM 40.7337 -72.8845 211° Southwest 403 464 22,000  Level FlightAware
Tue 10:12:47 PM 40.6849 -72.9233 211° Southwest 403 464 22,000  Level FlightAware
Tue 10:13:17 PM 40.6366 -72.9616 211° Southwest 401 461 22,000  Level FlightAware
Tue 10:13:49 PM 40.5867 -73.0012 211° Southwest 401 461 22,000  Level FlightAware
Tue 10:14:21 PM 40.5356 -73.0419 211° Southwest 401 461 22,000 -476 Level FlightAware
Tue 10:14:52 PM 40.4852 -73.0820 211° Southwest 408 470 21,500 -1,200 Descending FlightAware
Tue 10:15:26 PM 40.4315 -73.1247 211° Southwest 400 460 20,700 -1,385 Descending FlightAware
Tue 10:15:57 PM 40.3838 -73.1625 211° Southwest 389 448 20,000 -689 Descending FlightAware
Tue 10:16:27 PM 40.3371 -73.1996 211° Southwest 393 452 20,000  Level FlightAware
Tue 10:16:58 PM 40.2887 -73.2379 211° Southwest 389 448 20,000  Level FlightAware
Tue 10:17:28 PM 40.2418 -73.2750 211° Southwest 389 448 20,000  Level FlightAware
Tue 10:17:59 PM 40.1957 -73.3113 211° Southwest 386 444 20,000  Level FlightAware
Tue 10:18:29 PM 40.1487 -73.3483 211° Southwest 387 445 20,000  Level FlightAware
Tue 10:19:05 PM 40.0943 -73.3907 211° Southwest 386 444 20,000  Level FlightAware
Tue 10:19:36 PM 40.0464 -73.4283 211° Southwest 384 442 20,000  Level FlightAware
Tue 10:20:09 PM 39.9960 -73.4682 211° Southwest 384 442 20,000  Level FlightAware
Tue 10:20:41 PM 39.9479 -73.5061 211° Southwest 385 443 20,000  Level FlightAware
Tue 10:20:53 PM 39.9296 -73.5206 211° Southwest 385 443 20,000  Level FlightAware
Tue 10:21:02 PM 39.9156 -73.5333 215° Southwest 384 442 20,000  Level FlightAware
Tue 10:21:22 PM 39.8893 -73.5638 222° Southwest 385 443 20,000  Level FlightAware
Tue 10:21:30 PM 39.8794 -73.5785 229° Southwest 386 444 20,000 -324 Level FlightAware
Tue 10:21:59 PM 39.8466 -73.6279 229° Southwest 378 435 19,800 -353 Descending FlightAware
Tue 10:22:04 PM 39.8398 -73.6357 221° Southwest 375 432 19,800 -2,432 Level FlightAware
Tue 10:22:36 PM 39.7953 -73.6771 216° Southwest 376 433 18,300 -2,000 Descending FlightAware
Tue 10:23:13 PM 39.7404 -73.7262 215° Southwest 373 429 17,500 -1,147 Descending FlightAware
Tue 10:23:44 PM 39.6969 -73.7653 215° Southwest 375 432 17,000 -952 Descending FlightAware
Tue 10:24:16 PM 39.6505 -73.8063 214° Southwest 383 441 16,500 -857 Descending FlightAware
Tue 10:24:47 PM 39.6056 -73.8456 214° Southwest 377 434 16,100 -878 Descending FlightAware
Tue 10:24:57 PM 39.5913 -73.8584 215° Southwest 375 432 15,900 -900 Descending FlightAware
Tue 10:25:07 PM 39.5789 -73.8719 220° Southwest 369 425 15,800 -632 Descending FlightAware
Tue 10:25:16 PM 39.5685 -73.8863 227° Southwest 365 420 15,700 -818 Descending FlightAware
Tue 10:25:29 PM 39.5559 -73.9099 235° Southwest 361 415 15,500 -1,000 Descending FlightAware
Tue 10:25:40 PM 39.5475 -73.9324 244° Southwest 358 412 15,300 -818 Descending FlightAware
Tue 10:25:51 PM 39.5424 -73.9536 253° West 357 411 15,200 -818 Descending FlightAware
Tue 10:26:02 PM 39.5391 -73.9775 260° West 357 411 15,000 -857 Descending FlightAware
Tue 10:26:33 PM 39.5330 -74.0422 263° West 355 409 14,600 -774 Descending FlightAware
Tue 10:27:04 PM 39.5272 -74.1070 263° West 352 405 14,200 -679 Descending FlightAware
Tue 10:27:26 PM 39.5248 -74.1537 266° West 352 405 14,000 -333 Descending FlightAware
Tue 10:27:40 PM 39.5249 -74.1845 270° West 353 406 14,000 133 Level FlightAware
Tue 10:28:11 PM 39.5263 -74.2493 272° West 350 403 14,100 98 Climbing FlightAware
Tue 10:28:41 PM 39.5276 -74.3126 272° West 350 403 14,100 -885 Level FlightAware
Tue 10:29:12 PM 39.5286 -74.3760 271° West 345 397 13,200 -2,066 Descending FlightAware
Tue 10:29:42 PM 39.5297 -74.4382 271° West 343 395 12,000 -2,066 Descending FlightAware
Tue 10:30:13 PM 39.5308 -74.4999 271° West 331 381 11,100 -1,313 Descending FlightAware
Tue 10:30:46 PM 39.5316 -74.5630 271° West 307 353 10,600 -923 Descending FlightAware
Tue 10:31:18 PM 39.5326 -74.6199 271° West 288 331 10,100 -840 Descending FlightAware
Tue 10:31:36 PM 39.5331 -74.6501 271° West 283 326 9,900 -1,029 Descending FlightAware
Tue 10:31:53 PM 39.5337 -74.6783 272° West 274 315 9,500 -1,273 Descending FlightAware
Tue 10:32:09 PM 39.5342 -74.7048 271° West 269 310 9,200 -968 Descending FlightAware
Tue 10:32:24 PM 39.5348 -74.7295 272° West 274 315 9,000 -293 Descending FlightAware
Tue 10:32:50 PM 39.5355 -74.7707 271° West 268 308 9,000  Level FlightAware
Tue 10:33:11 PM 39.5360 -74.8031 271° West 248 285 9,000  Level FlightAware
Tue 10:33:23 PM 39.5364 -74.8210 272° West 236 272 9,000 333 Level FlightAware
Tue 10:33:29 PM 39.5372 -74.8296 277° West 230 265 9,100 462 Climbing FlightAware
Tue 10:33:36 PM 39.5386 -74.8393 281° West 228 262 9,100  Level FlightAware
Tue 10:33:52 PM 39.5419 -74.8599 282° West 227 261 9,100 -188 Level FlightAware
Tue 10:34:08 PM 39.5457 -74.8813 283° West 223 257 9,000 -750 Descending FlightAware
Tue 10:34:24 PM 39.5494 -74.9024 283° West 221 254 8,700 -1,000 Descending FlightAware
Tue 10:34:38 PM 39.5526 -74.9204 283° West 220 253 8,500 -828 Descending FlightAware
Tue 10:34:53 PM 39.5559 -74.9397 283° West 218 251 8,300 -923 Descending FlightAware
Tue 10:35:04 PM 39.5582 -74.9538 282° West 215 247 8,100 -1,091 Descending FlightAware
Tue 10:35:15 PM 39.5603 -74.9675 281° West 213 245 7,900 -857 Descending FlightAware
Tue 10:35:32 PM 39.5639 -74.9896 282° West 210 242 7,700 -727 Descending FlightAware
Tue 10:35:48 PM 39.5668 -75.0087 281° West 207 238 7,500 -774 Descending FlightAware
Tue 10:36:03 PM 39.5698 -75.0275 282° West 204 235 7,300 -800 Descending FlightAware
Tue 10:36:18 PM 39.5725 -75.0458 281° West 200 230 7,100 -818 Descending FlightAware
Tue 10:36:25 PM 39.5739 -75.0538 283° West 199 229 7,000 -1,200 Descending FlightAware
Tue 10:36:28 PM 39.5748 -75.0575 288° West 197 227 6,900 -857 Descending FlightAware
Tue 10:36:32 PM 39.5759 -75.0610 292° West 197 227 6,900 -750 Level FlightAware
Tue 10:36:36 PM 39.5780 -75.0655 301° West 197 227 6,800 -1,333 Descending FlightAware
Tue 10:36:41 PM 39.5808 -75.0698 310° West 198 228 6,700 -947 Descending FlightAware
Tue 10:36:55 PM 39.5921 -75.0790 328° Northwest 201 231 6,500 -913 Descending FlightAware
Tue 10:37:27 PM 39.6201 -75.0941 337° Northwest 208 239 6,000 -638 Descending FlightAware
Tue 10:37:42 PM 39.6336 -75.1010 339° North 195 224 6,000 207 Level FlightAware
Tue 10:37:56 PM 39.6455 -75.1073 338° Northwest 192 221 6,100 214 Climbing FlightAware
Tue 10:38:10 PM 39.6573 -75.1135 338° Northwest 193 222 6,100  Level FlightAware
Tue 10:38:26 PM 39.6704 -75.1207 337° Northwest 193 222 6,100  Level FlightAware
Tue 10:38:40 PM 39.6824 -75.1273 337° Northwest 193 222 6,100  Level FlightAware
Tue 10:38:45 PM 39.6866 -75.1290 343° North 196 226 6,100  Level FlightAware
Tue 10:38:50 PM 39.6910 -75.1300 350° North 201 231 6,100  Level FlightAware
Tue 10:38:56 PM 39.6974 -75.1295 North 208 239 6,100  Level FlightAware
Tue 10:39:04 PM 39.7047 -75.1261 20° North 215 247 6,100  Level FlightAware
Tue 10:39:07 PM 39.7075 -75.1238 32° Northeast 223 257 6,100  Level FlightAware
Tue 10:39:11 PM 39.7108 -75.1203 39° Northeast 229 264 6,100  Level FlightAware
Tue 10:39:16 PM 39.7141 -75.1155 48° Northeast 236 272 6,100  Level FlightAware
Tue 10:39:21 PM 39.7173 -75.1088 58° Northeast 242 278 6,100  Level FlightAware
Tue 10:39:25 PM 39.7190 -75.1037 67° East 244 281 6,100  Level FlightAware
Tue 10:39:35 PM 39.7224 -75.0897 72° East 248 285 6,100 -353 Level FlightAware
Tue 10:39:42 PM 39.7254 -75.0798 68° East 246 283 6,000 -643 Descending FlightAware
Tue 10:40:03 PM 39.7374 -75.0547 58° Northeast 240 276 5,800 -833 Descending FlightAware
Tue 10:40:18 PM 39.7467 -75.0367 56° Northeast 239 275 5,500 -1,154 Descending FlightAware
Tue 10:40:29 PM 39.7543 -75.0230 54° Northeast 238 274 5,300 -1,125 Descending FlightAware
Tue 10:40:34 PM 39.7582 -75.0181 44° Northeast 233 268 5,200 -1,000 Descending FlightAware
Tue 10:40:47 PM 39.7690 -75.0095 31° Northeast 225 259 5,000 -977 Descending FlightAware
Tue 10:41:17 PM 39.7976 -74.9905 27° Northeast 228 262 4,500 -1,000 Descending FlightAware
Tue 10:41:35 PM 39.8145 -74.9803 25° Northeast 227 261 4,200 -857 Descending FlightAware
Tue 10:41:38 PM 39.8177 -74.9792 15° North 225 259 4,200 -600 Level FlightAware
Tue 10:41:45 PM 39.8245 -74.9775 11° North 222 255 4,100 -947 Descending FlightAware
Tue 10:41:57 PM 39.8372 -74.9751 North 222 255 3,900 -889 Descending FlightAware
Tue 10:42:12 PM 39.8526 -74.9726 North 221 254 3,700 -968 Descending FlightAware
Tue 10:42:28 PM 39.8689 -74.9701 North 222 255 3,400 -1,091 Descending FlightAware
Tue 10:42:45 PM 39.8854 -74.9677 North 222 255 3,100 -857 Descending FlightAware
Tue 10:42:56 PM 39.8972 -74.9659 North 222 255 3,000 -300 Descending FlightAware
Tue 10:43:05 PM 39.9061 -74.9667 356° North 215 247 3,000 462 Level FlightAware
Tue 10:43:09 PM 39.9100 -74.9683 343° North 209 241 3,100 750 Climbing FlightAware
Tue 10:43:13 PM 39.9134 -74.9705 334° Northwest 205 236 3,100  Level FlightAware
Tue 10:43:17 PM 39.9165 -74.9735 323° Northwest 201 231 3,100  Level FlightAware
Tue 10:43:21 PM 39.9185 -74.9760 316° Northwest 197 227 3,100  Level FlightAware
Tue 10:43:28 PM 39.9220 -74.9839 300° West 187 215 3,100  Level FlightAware
Tue 10:43:34 PM 39.9228 -74.9898 280° West 184 212 3,100  Level FlightAware
Tue 10:43:38 PM 39.9225 -74.9946 265° West 181 208 3,100  Level FlightAware
Tue 10:43:43 PM 39.9212 -74.9996 251° West 182 209 3,100  Level FlightAware
Tue 10:43:49 PM 39.9192 -75.0061 248° West 183 211 3,100  Level FlightAware
Tue 10:43:53 PM 39.9182 -75.0096 250° West 183 211 3,100  Level FlightAware
Tue 10:44:00 PM 39.9164 -75.0175 253° West 183 211 3,100 -600 Level FlightAware
Tue 10:44:23 PM 39.9112 -75.0420 255° West 185 213 2,800 -947 Descending FlightAware
Tue 10:44:38 PM 39.9079 -75.0582 255° West 187 215 2,500 -1,125 Descending FlightAware
Tue 10:44:55 PM 39.9043 -75.0766 256° West 190 219 2,200 -968 Descending FlightAware
Tue 10:45:09 PM 39.9011 -75.0925 255° West 190 219 2,000 -800 Descending FlightAware
Tue 10:45:25 PM 39.8978 -75.1093 256° West 190 219 1,800 -968 Descending FlightAware
Tue 10:45:40 PM 39.8946 -75.1255 256° West 181 208 1,500 -900 Descending FlightAware
Tue 10:45:45 PM 39.8935 -75.1307 255° West 173 199 1,500 -632 Level FlightAware
Tue 10:45:59 PM 39.8909 -75.1440 256° West 146 168 1,300 -774 Descending FlightAware
Tue 10:46:16 PM 39.8882 -75.1575 255° West 121 139 1,100 -686 Descending FlightAware
Tue 10:46:34 PM 39.8859 -75.1692 256° West 113 130 900 -545 Descending FlightAware
Tue 10:46:49 PM 39.8841 -75.1783 256° West 102 117 800 -571 Descending FlightAware
Tue 10:46:55 PM 39.8834 -75.1815 254° West 101 116 700 -571 Descending FlightAware
Tue 10:47:10 PM 39.8817 -75.1901 256° West 101 116 600 -400 Descending FlightAware

Login

Don't have an account? Register now (free) for customized features, flight alerts, and more!